Terminal Aerodrome Forecast
Issued by NWS

Home | Current Version | Previous Version | Text Only | Print | Product List | Glossary On
Versions: 1 2 3 4 5 6 7 8 9 10 11 12 13
000
FTUS45 KTFX 221120
TAFLWT
TAF
KLWT 221120Z 2212/2312 VRB06KT P6SM VCSH SCT060 BKN090
     FM221400 VRB06KT P6SM SCT080 BKN150
     FM221700 VRB06KT P6SM VCSH SCT050 BKN080
     FM222000 07010KT P6SM VCTS SCT040CB BKN070 PROB30 2221/2303
      TSRA BKN035CB
     FM230300 VRB06KT P6SM VCSH SCT035 BKN060=

USA.gov is the U.S. government's official web portal to all federal, state and local government web resources and services.